Cottonwood, Idaho
Current Conditions -  °F | °C
As of 11:35 PM on Tuesday 25 Nov 2014 (Local Time) from KGIC Reporting Station
Overcast Overcast  
Wind Chill: 43°   Ceiling: 3200
Heat Index: 49°   Visibility: 10mi
Dew Point: 42°   Wind: 17mph
Humidity: 77%   Direction: 230°SW
Pressure: 30.18"   Gusts: 26mph
Location:  46.05°N, 116.35°W
Report Text: KGIC 260735Z AUTO 23015G23KT 10SM SCT018 BKN032 OVC038 10/06 A3018 RMK AO1 P0001 T00950056
Loading
Personal Weather Stations






























Interactive Weather Map New forecast layout! Learn more

10-Day Weather Forecast

Advertisements
Track Severe Weather on mobile